< < Back
Terminal Aerodrome Forecast


Current Version              Previous Versions:   1  2  3  4  5  6  7  8  9  

Terminal Aerodrome Forecast

515
FTUS42 KGSP 281739
TAFCLT
TAF
KCLT 281739Z 2818/2918 16005KT P6SM VCSH BKN045
      TEMPO 2818/2822 VRB08G18KT 4SM TSRA BKN040CB
     FM290200 17004KT P6SM BKN045
     FM291000 00000KT 5SM BR BKN250
     FM291200 00000KT P6SM BKN080=

Latest METAR

441
SAUS70 KWBC 290000
MTRCLT
METAR KCLT 282352Z 25004KT 10SM FEW048 BKN140 BKN250 25/19 A3019 RMK AO2
SLP214 T02500189 10311 20250 53012 $


USA.gov is the U.S. government's official web portal to all federal, state and local government web resources and services.